createdAt,value
2018-06-08T00:02:06.413Z,100199.87
2018-06-08T00:04:34.309Z,100199.55
2018-06-08T00:07:02.298Z,100199.31
2018-06-08T00:09:30.145Z,100192.36
2018-06-08T00:11:58.004Z,100191.56
2018-06-08T00:14:25.945Z,100194.84
2018-06-08T00:16:53.856Z,100192.05
2018-06-08T00:19:21.725Z,100194.18
2018-06-08T00:21:56.330Z,100187.63
2018-06-08T00:24:24.104Z,100191.00
2018-06-08T00:26:51.995Z,100186.81
2018-06-08T00:29:19.844Z,100189.28
2018-06-08T00:31:47.720Z,100185.88
2018-06-08T00:34:15.588Z,100182.03
2018-06-08T00:36:43.454Z,100179.59
2018-06-08T00:39:11.272Z,100180.16
2018-06-08T00:41:39.153Z,100174.88
2018-06-08T00:44:07.092Z,100179.83
2018-06-08T00:46:34.908Z,100178.19
2018-06-08T00:49:02.783Z,100176.05
2018-06-08T00:51:30.657Z,100176.05
2018-06-08T00:53:58.633Z,100176.00
2018-06-08T00:56:43.857Z,100181.55
2018-06-08T00:59:11.798Z,100180.13
2018-06-08T01:01:39.697Z,100184.88
2018-06-08T01:04:07.652Z,100177.64
2018-06-08T01:06:35.507Z,100177.39
2018-06-08T01:09:05.462Z,100180.95
2018-06-08T01:11:33.361Z,100183.19
2018-06-08T01:14:01.295Z,100183.81
2018-06-08T01:16:29.216Z,100180.86
2018-06-08T01:18:57.125Z,100177.06
2018-06-08T01:21:24.939Z,100186.48
2018-06-08T01:23:52.732Z,100187.09
2018-06-08T01:26:20.602Z,100184.20
2018-06-08T01:28:48.558Z,100188.43
2018-06-08T01:31:16.436Z,100192.08
2018-06-08T01:33:44.424Z,100189.87
2018-06-08T01:36:12.285Z,100191.45
2018-06-08T01:38:40.207Z,100192.13
2018-06-08T01:41:11.613Z,100193.80
2018-06-08T01:43:39.549Z,100188.73
2018-06-08T01:46:07.437Z,100199.06
2018-06-08T01:48:35.293Z,100199.06
2018-06-08T01:51:03.263Z,100196.00
2018-06-08T01:53:31.101Z,100199.72
2018-06-08T01:55:58.948Z,100199.72
2018-06-08T01:58:26.841Z,100194.17
2018-06-08T02:00:54.740Z,100198.08
2018-06-08T02:03:22.545Z,100192.97
2018-06-08T02:05:50.494Z,100190.56
2018-06-08T02:08:18.408Z,100184.45
2018-06-08T02:10:46.239Z,100181.11
2018-06-08T02:13:14.026Z,100178.09
2018-06-08T02:15:41.877Z,100173.63
2018-06-08T02:18:09.741Z,100170.92
2018-06-08T02:20:37.585Z,100165.38
2018-06-08T02:23:05.408Z,100165.13
2018-06-08T02:25:33.337Z,100163.35
2018-06-08T02:28:01.212Z,100161.48
2018-06-08T02:30:29.091Z,100161.48
2018-06-08T02:32:56.861Z,100166.20
2018-06-08T02:35:24.749Z,100156.81
2018-06-08T02:37:52.860Z,100157.38
2018-06-08T02:40:20.801Z,100153.98
2018-06-08T02:42:48.581Z,100159.25
2018-06-08T02:45:16.538Z,100155.68
2018-06-08T02:47:44.409Z,100153.16
2018-06-08T02:50:12.273Z,100157.30
2018-06-08T02:52:40.133Z,100157.32
2018-06-08T02:55:08.022Z,100157.38
2018-06-08T02:57:35.906Z,100153.83
2018-06-08T03:00:04.190Z,100157.70
2018-06-08T03:02:32.082Z,100161.66
2018-06-08T03:04:59.907Z,100150.44
2018-06-08T03:07:27.728Z,100147.67
2018-06-08T03:09:55.602Z,100159.40
2018-06-08T03:12:23.496Z,100156.06
2018-06-08T03:14:51.448Z,100151.72
2018-06-08T03:17:19.309Z,100156.14
2018-06-08T03:19:47.165Z,100156.60
2018-06-08T03:22:15.022Z,100165.81
2018-06-08T03:24:42.914Z,100167.08
2018-06-08T03:27:10.724Z,100172.05
2018-06-08T03:29:38.561Z,100174.33
2018-06-08T03:32:06.469Z,100169.97
2018-06-08T03:34:34.446Z,100168.02
2018-06-08T03:37:02.509Z,100163.86
2018-06-08T03:39:30.394Z,100167.14
2018-06-08T03:41:58.292Z,100176.01
2018-06-08T03:44:26.163Z,100179.59
2018-06-08T03:46:54.041Z,100176.77
2018-06-08T03:49:21.873Z,100176.14
2018-06-08T03:51:49.955Z,100174.75
2018-06-08T03:54:17.946Z,100175.20
2018-06-08T03:56:48.066Z,100181.05
2018-06-08T03:59:17.230Z,100176.39
2018-06-08T04:01:45.169Z,100175.59
2018-06-08T04:04:12.989Z,100182.27
2018-06-08T04:06:41.697Z,100188.94
2018-06-08T04:09:09.675Z,100196.13
2018-06-08T04:11:37.605Z,100208.65
2018-06-08T04:14:05.569Z,100212.19
2018-06-08T04:16:33.479Z,100218.02
2018-06-08T04:19:01.399Z,100211.35
2018-06-08T04:21:29.257Z,100198.33
2018-06-08T04:23:57.116Z,100200.66
2018-06-08T04:26:25.026Z,100197.38
2018-06-08T04:28:52.973Z,100200.41
2018-06-08T04:31:20.845Z,100205.44
2018-06-08T04:33:48.743Z,100205.64
2018-06-08T04:36:16.584Z,100204.23
2018-06-08T04:38:44.437Z,100194.53
2018-06-08T04:41:12.349Z,100202.23
2018-06-08T04:43:40.250Z,100198.27
2018-06-08T04:46:08.029Z,100198.62
2018-06-08T04:48:35.863Z,100200.06
2018-06-08T04:51:03.849Z,100202.70
2018-06-08T04:53:31.792Z,100198.23
2018-06-08T04:55:59.661Z,100196.47
2018-06-08T04:58:27.509Z,100199.02
2018-06-08T05:00:55.444Z,100209.24
2018-06-08T05:03:23.292Z,100201.75
2018-06-08T05:05:51.237Z,100202.83
2018-06-08T05:08:22.519Z,100204.52
2018-06-08T05:10:50.357Z,100205.36
2018-06-08T05:13:18.269Z,100204.13
2018-06-08T05:15:46.180Z,100203.94
2018-06-08T05:18:14.069Z,100204.47
2018-06-08T05:20:42.037Z,100208.08
2018-06-08T05:23:09.992Z,100204.78
2018-06-08T05:25:37.908Z,100203.95
2018-06-08T05:28:05.789Z,100204.13
2018-06-08T05:30:33.631Z,100209.55
2018-06-08T05:33:01.501Z,100208.33
2018-06-08T05:35:29.369Z,100210.86
2018-06-08T05:37:57.373Z,100213.53
2018-06-08T05:40:25.217Z,100217.06
2018-06-08T05:42:53.109Z,100219.29
2018-06-08T05:45:21.023Z,100206.70
2018-06-08T05:47:48.949Z,100204.16
2018-06-08T05:50:18.863Z,100205.07
2018-06-08T05:52:46.920Z,100202.90
2018-06-08T05:55:14.837Z,100205.64
2018-06-08T05:57:42.797Z,100202.16
2018-06-08T06:00:10.745Z,100203.41
2018-06-08T06:02:38.715Z,100206.19
2018-06-08T06:05:06.701Z,100202.58
2018-06-08T06:07:34.638Z,100207.28
2018-06-08T06:10:02.553Z,100200.60
2018-06-08T06:12:30.437Z,100204.93
2018-06-08T06:14:58.331Z,100199.87
2018-06-08T06:17:26.239Z,100198.41
2018-06-08T06:19:54.152Z,100195.96
2018-06-08T06:22:21.996Z,100194.68
2018-06-08T06:24:49.845Z,100196.33
2018-06-08T06:27:18.676Z,100194.39
2018-06-08T06:29:46.594Z,100200.12
2018-06-08T06:32:14.425Z,100197.42
2018-06-08T06:34:42.380Z,100205.14
2018-06-08T06:37:10.282Z,100203.37
2018-06-08T06:39:38.252Z,100205.09
2018-06-08T06:42:06.189Z,100207.63
2018-06-08T06:44:34.093Z,100212.65
2018-06-08T06:47:02.013Z,100212.77
2018-06-08T06:49:29.885Z,100218.42
2018-06-08T06:51:57.761Z,100216.77
2018-06-08T06:54:27.622Z,100214.55
2018-06-08T06:56:55.474Z,100215.75
2018-06-08T06:59:23.364Z,100217.31
2018-06-08T07:01:51.117Z,100219.35
2018-06-08T07:04:19.075Z,100224.08
2018-06-08T07:06:46.858Z,100224.78
2018-06-08T07:09:14.668Z,100224.16
2018-06-08T07:11:42.492Z,100231.26
2018-06-08T07:14:10.369Z,100231.73
2018-06-08T07:16:38.236Z,100235.51
2018-06-08T07:19:06.075Z,100232.02
2018-06-08T07:21:33.950Z,100234.77
2018-06-08T07:24:01.859Z,100227.00
2018-06-08T07:26:29.689Z,100236.50
2018-06-08T07:28:57.797Z,100230.21
2018-06-08T07:31:25.749Z,100229.24
2018-06-08T07:33:53.622Z,100225.75
2018-06-08T07:36:21.588Z,100224.69
2018-06-08T07:38:49.464Z,100225.14
2018-06-08T07:41:17.380Z,100217.38
2018-06-08T07:43:45.281Z,100225.23
2018-06-08T07:46:13.204Z,100230.98
2018-06-08T07:48:41.002Z,100231.20
2018-06-08T07:51:08.957Z,100235.56
2018-06-08T07:53:36.801Z,100231.03
2018-06-08T07:56:04.715Z,100222.64
2018-06-08T07:58:32.535Z,100227.09
2018-06-08T08:01:00.388Z,100226.59
2018-06-08T08:03:28.300Z,100225.19
2018-06-08T08:05:56.198Z,100220.98
2018-06-08T08:08:24.088Z,100216.70
2018-06-08T08:10:52.021Z,100224.03
2018-06-08T08:13:19.851Z,100216.69
2018-06-08T08:15:47.732Z,100218.55
2018-06-08T08:18:16.369Z,100220.66
2018-06-08T08:20:44.357Z,100223.72
2018-06-08T08:23:12.269Z,100223.83
2018-06-08T08:25:40.117Z,100223.83
2018-06-08T08:28:08.035Z,100220.07
2018-06-08T08:30:35.882Z,100216.23
2018-06-08T08:33:03.766Z,100214.50
2018-06-08T08:35:31.579Z,100211.19
2018-06-08T08:37:59.411Z,100207.78
2018-06-08T08:40:27.224Z,100206.82
2018-06-08T08:42:55.064Z,100207.63
2018-06-08T08:45:22.990Z,100203.19
2018-06-08T08:47:50.838Z,100211.73
2018-06-08T08:50:18.719Z,100201.67
2018-06-08T08:52:46.588Z,100200.16
2018-06-08T08:55:14.400Z,100202.98
2018-06-08T08:57:42.218Z,100206.37
2018-06-08T09:00:10.144Z,100201.47
2018-06-08T09:02:38.049Z,100200.07
2018-06-08T09:05:05.977Z,100197.20
2018-06-08T09:07:33.807Z,100189.96
2018-06-08T09:10:01.645Z,100195.72
2018-06-08T09:12:29.546Z,100188.12
2018-06-08T09:14:57.405Z,100182.87
2018-06-08T09:17:25.305Z,100184.42
2018-06-08T09:19:53.243Z,100185.66
2018-06-08T09:22:21.064Z,100180.88
2018-06-08T09:24:48.992Z,100169.20
2018-06-08T09:27:16.895Z,100173.91
2018-06-08T09:29:44.806Z,100172.66
2018-06-08T09:32:12.721Z,100176.06
2018-06-08T09:34:40.576Z,100171.03
2018-06-08T09:37:08.553Z,100161.50
2018-06-08T09:39:36.408Z,100159.02
2018-06-08T09:42:04.261Z,100160.56
2018-06-08T09:44:32.142Z,100159.95
2018-06-08T09:46:59.980Z,100159.33
2018-06-08T09:49:27.933Z,100153.41
2018-06-08T09:51:55.784Z,100148.60
2018-06-08T09:54:23.708Z,100143.42
2018-06-08T09:56:51.534Z,100137.00
2018-06-08T09:59:19.409Z,100136.33
2018-06-08T10:01:47.230Z,100126.48
2018-06-08T10:04:15.080Z,100128.36
2018-06-08T10:06:42.917Z,100135.21
2018-06-08T10:09:11.345Z,100127.34
2018-06-08T10:11:39.858Z,100129.38
2018-06-08T10:14:07.781Z,100120.98
2018-06-08T10:16:35.719Z,100121.04
2018-06-08T10:19:03.667Z,100119.70
2018-06-08T10:21:31.725Z,100109.96
2018-06-08T10:23:59.569Z,100110.94
2018-06-08T10:26:27.614Z,100111.77
2018-06-08T10:28:55.493Z,100108.22
2018-06-08T10:31:23.376Z,100105.99
2018-06-08T10:33:51.256Z,100106.31
2018-06-08T10:36:19.216Z,100097.87
2018-06-08T10:38:47.068Z,100092.30
2018-06-08T10:41:14.876Z,100091.75
2018-06-08T10:43:42.773Z,100103.36
2018-06-08T10:46:10.680Z,100101.75
2018-06-08T10:48:38.533Z,100094.93
2018-06-08T10:51:06.419Z,100094.63
2018-06-08T10:53:34.220Z,100094.78
2018-06-08T10:56:02.295Z,100089.36
2018-06-08T10:58:30.232Z,100083.28
2018-06-08T11:00:58.073Z,100089.32
2018-06-08T11:03:25.937Z,100088.73
2018-06-08T11:05:53.805Z,100092.63
2018-06-08T11:08:21.615Z,100092.37
2018-06-08T11:10:49.505Z,100083.84
2018-06-08T11:13:17.385Z,100087.70
2018-06-08T11:15:45.274Z,100091.26
2018-06-08T11:18:13.184Z,100085.14
2018-06-08T11:20:41.024Z,100088.15
2018-06-08T11:23:08.928Z,100080.97
2018-06-08T11:25:36.823Z,100079.02
2018-06-08T11:28:04.650Z,100076.75
2018-06-08T11:30:32.586Z,100065.02
2018-06-08T11:33:00.481Z,100069.28
2018-06-08T11:35:28.561Z,100061.36
2018-06-08T11:37:56.379Z,100062.77
2018-06-08T11:40:25.495Z,100060.55
2018-06-08T11:42:53.500Z,100059.35
2018-06-08T11:45:21.393Z,100066.16
2018-06-08T11:47:49.285Z,100050.95
2018-06-08T11:50:17.112Z,100057.30
2018-06-08T11:52:45.072Z,100054.61
2018-06-08T11:55:13.029Z,100052.28
2018-06-08T11:57:40.959Z,100045.03
2018-06-08T12:00:13.814Z,100038.95
2018-06-08T12:02:42.029Z,100028.67
2018-06-08T12:05:09.970Z,100026.98
2018-06-08T12:07:37.911Z,100021.27
2018-06-08T12:10:05.776Z,100026.77
2018-06-08T12:12:33.760Z,100016.37
2018-06-08T12:15:01.621Z,100015.82
2018-06-08T12:17:29.468Z,100014.00
2018-06-08T12:19:57.506Z,100009.58
2018-06-08T12:22:25.470Z,100001.54
2018-06-08T12:24:53.270Z,99996.13
2018-06-08T12:27:21.182Z,99992.18
2018-06-08T12:29:49.105Z,99998.53
2018-06-08T12:32:16.940Z,99989.36
2018-06-08T12:34:44.797Z,99990.89
2018-06-08T12:37:12.723Z,99987.81
2018-06-08T12:39:40.629Z,99978.02
2018-06-08T12:42:08.494Z,99980.30
2018-06-08T12:44:36.321Z,99969.41
2018-06-08T12:47:04.357Z,99973.86
2018-06-08T12:49:32.201Z,99968.25
2018-06-08T12:52:00.050Z,99971.90
2018-06-08T12:54:27.851Z,99969.94
2018-06-08T12:56:55.710Z,99964.55
2018-06-08T12:59:23.605Z,99963.73
2018-06-08T13:01:52.180Z,99962.37
2018-06-08T13:04:20.026Z,99953.77
2018-06-08T13:06:48.010Z,99959.48
2018-06-08T13:09:15.821Z,99960.31
2018-06-08T13:11:43.686Z,99958.72
2018-06-08T13:14:11.589Z,99957.18
2018-06-08T13:16:39.453Z,99958.46
2018-06-08T13:19:07.336Z,99960.27
2018-06-08T13:21:35.201Z,99950.93
2018-06-08T13:24:03.089Z,99952.30
2018-06-08T13:26:31.009Z,99948.25
2018-06-08T13:28:58.845Z,99950.73
2018-06-08T13:31:26.687Z,99954.70
2018-06-08T13:33:54.565Z,99953.98
2018-06-08T13:36:22.476Z,99949.72
2018-06-08T13:38:50.278Z,99946.84
2018-06-08T13:41:18.559Z,99946.59
2018-06-08T13:43:46.916Z,99943.61
2018-06-08T13:46:32.016Z,99940.77
2018-06-08T13:49:00.166Z,99936.78
2018-06-08T13:51:28.620Z,99941.30
2018-06-08T13:53:56.480Z,99936.21
2018-06-08T13:56:24.376Z,99941.94
2018-06-08T13:58:52.280Z,99933.20
2018-06-08T14:01:20.139Z,99932.09
2018-06-08T14:03:48.061Z,99935.55
2018-06-08T14:06:16.173Z,99930.69
2018-06-08T14:08:44.105Z,99921.56
2018-06-08T14:11:11.961Z,99917.53
2018-06-08T14:13:39.884Z,99925.23
2018-06-08T14:16:07.737Z,99920.96
2018-06-08T14:18:35.578Z,99927.66
2018-06-08T14:21:03.440Z,99922.77
2018-06-08T14:23:31.353Z,99927.45
2018-06-08T14:25:59.377Z,99930.30
2018-06-08T14:28:27.258Z,99929.28
2018-06-08T14:30:55.954Z,99929.45
2018-06-08T14:33:23.846Z,99944.27
2018-06-08T14:35:51.900Z,99954.59
2018-06-08T14:38:20.317Z,99957.84
2018-06-08T14:40:51.232Z,99949.50
2018-06-08T14:43:19.225Z,99936.68
2018-06-08T14:45:47.086Z,99921.23
2018-06-08T14:48:15.665Z,99915.57
2018-06-08T14:50:43.549Z,99921.14
2018-06-08T14:53:11.405Z,99917.09
2018-06-08T14:55:39.310Z,99912.09
2018-06-08T14:58:07.253Z,99901.28
2018-06-08T15:00:35.189Z,99898.25
2018-06-08T15:03:03.095Z,99901.05
2018-06-08T15:05:31.063Z,99898.52
2018-06-08T15:07:59.236Z,99893.13
2018-06-08T15:10:27.194Z,99887.56
2018-06-08T15:12:55.069Z,99876.70
2018-06-08T15:15:22.989Z,99870.51
2018-06-08T15:17:50.793Z,99868.02
2018-06-08T15:20:18.665Z,99868.83
2018-06-08T15:22:46.533Z,99867.03
2018-06-08T15:25:14.352Z,99866.06
2018-06-08T15:27:42.273Z,99870.25
2018-06-08T15:30:10.153Z,99861.03
2018-06-08T15:32:38.054Z,99864.45
2018-06-08T15:35:05.995Z,99855.53
2018-06-08T15:37:33.813Z,99861.69
2018-06-08T15:40:01.661Z,99854.88
2018-06-08T15:42:29.540Z,99843.41
2018-06-08T15:44:57.354Z,99839.62
2018-06-08T15:47:25.212Z,99834.57
2018-06-08T15:49:53.178Z,99832.47
2018-06-08T15:52:21.034Z,99834.94
2018-06-08T15:54:49.008Z,99837.40
2018-06-08T15:57:16.919Z,99830.94
2018-06-08T15:59:44.725Z,99831.75
2018-06-08T16:02:13.241Z,99839.13
2018-06-08T16:04:41.037Z,99849.48
2018-06-08T16:07:08.918Z,99847.04
2018-06-08T16:09:36.913Z,99853.91
2018-06-08T16:12:04.793Z,99844.58
2018-06-08T16:14:32.745Z,99842.11
2018-06-08T16:17:00.645Z,99843.81
2018-06-08T16:19:28.585Z,99849.17
2018-06-08T16:21:56.399Z,99847.25
2018-06-08T16:24:24.330Z,99863.79
2018-06-08T16:26:52.264Z,99869.39
2018-06-08T16:29:20.065Z,99865.00
2018-06-08T16:31:47.893Z,99864.20
2018-06-08T16:34:15.852Z,99857.75
2018-06-08T16:36:43.709Z,99856.29
2018-06-08T16:39:12.565Z,99860.16
2018-06-08T16:41:40.471Z,99862.20
2018-06-08T16:44:08.281Z,99862.91
2018-06-08T16:46:36.184Z,99866.82
2018-06-08T16:49:04.198Z,99863.61
2018-06-08T16:51:32.153Z,99856.29
2018-06-08T16:54:00.035Z,99852.79
2018-06-08T16:56:27.868Z,99856.89
2018-06-08T16:58:55.733Z,99849.48
2018-06-08T17:01:23.714Z,99859.41
2018-06-08T17:03:51.609Z,99864.70
2018-06-08T17:06:19.413Z,99867.28
2018-06-08T17:08:47.298Z,99872.69
2018-06-08T17:11:15.188Z,99868.03
2018-06-08T17:13:43.112Z,99868.28
2018-06-08T17:16:10.985Z,99878.58
2018-06-08T17:18:38.853Z,99879.87
2018-06-08T17:21:06.746Z,99882.75
2018-06-08T17:23:34.636Z,99890.16
2018-06-08T17:26:02.525Z,99891.58
2018-06-08T17:28:30.430Z,99896.92
2018-06-08T17:30:58.263Z,99901.83
2018-06-08T17:33:26.172Z,99904.87
2018-06-08T17:35:54.009Z,99910.75
2018-06-08T17:38:21.815Z,99903.70
2018-06-08T17:40:49.628Z,99901.32
2018-06-08T17:43:17.508Z,99900.25
2018-06-08T17:45:45.402Z,99907.52
2018-06-08T17:48:13.325Z,99904.70
2018-06-08T17:50:41.171Z,99900.79
2018-06-08T17:53:09.070Z,99897.98
2018-06-08T17:55:36.939Z,99894.30
2018-06-08T17:58:04.820Z,99896.41
2018-06-08T18:00:32.754Z,99902.25
2018-06-08T18:03:00.613Z,99916.56
2018-06-08T18:05:28.433Z,99913.02
2018-06-08T18:07:56.263Z,99915.03
2018-06-08T18:10:24.236Z,99910.00
2018-06-08T18:12:52.158Z,99908.81
2018-06-08T18:15:20.068Z,99907.25
2018-06-08T18:17:48.131Z,99907.69
2018-06-08T18:20:16.523Z,99904.26
2018-06-08T18:22:44.865Z,99910.70
2018-06-08T18:25:12.769Z,99917.63
2018-06-08T18:27:40.715Z,99919.84
2018-06-08T18:30:09.865Z,99923.96
2018-06-08T18:32:37.740Z,99923.03
2018-06-08T18:35:05.844Z,99924.61
2018-06-08T18:37:33.822Z,99925.34
2018-06-08T18:40:01.761Z,99925.66
2018-06-08T18:42:32.228Z,99926.38
2018-06-08T18:45:00.209Z,99935.35
2018-06-08T18:47:29.161Z,99944.47
2018-06-08T18:49:57.238Z,99940.52
2018-06-08T18:52:26.114Z,99943.75
2018-06-08T18:55:00.475Z,99948.07
2018-06-08T18:57:35.036Z,99951.38
2018-06-08T19:00:03.329Z,99958.38
2018-06-08T19:02:31.205Z,99958.64
2018-06-08T19:04:59.107Z,99961.27
2018-06-08T19:07:28.015Z,99966.53
2018-06-08T19:09:56.149Z,99965.38
2018-06-08T19:12:24.105Z,99976.00
2018-06-08T19:14:52.036Z,99977.63
2018-06-08T19:17:19.982Z,99979.52
2018-06-08T19:19:47.885Z,99983.25
2018-06-08T19:22:15.784Z,99983.78
2018-06-08T19:24:43.719Z,99976.42
2018-06-08T19:27:11.534Z,99978.75
2018-06-08T19:29:39.516Z,99987.14
2018-06-08T19:32:07.372Z,99979.98
2018-06-08T19:34:35.277Z,99982.77
2018-06-08T19:37:03.170Z,99986.02
2018-06-08T19:39:31.014Z,99988.81
2018-06-08T19:41:58.889Z,99991.84
2018-06-08T19:44:26.823Z,99991.81
2018-06-08T19:46:54.711Z,99997.30
2018-06-08T19:49:22.610Z,99993.34
2018-06-08T19:51:50.453Z,99996.10
2018-06-08T19:54:18.340Z,99992.64
2018-06-08T19:56:46.194Z,99996.58
2018-06-08T19:59:14.064Z,99992.59
2018-06-08T20:01:41.909Z,99993.44
2018-06-08T20:04:09.745Z,99994.48
2018-06-08T20:06:41.118Z,99988.48
2018-06-08T20:09:08.985Z,99993.09
2018-06-08T20:11:36.954Z,99997.52
2018-06-08T20:14:04.954Z,100004.81
2018-06-08T20:16:32.834Z,99999.30
2018-06-08T20:19:00.665Z,100010.80
2018-06-08T20:21:28.570Z,100004.51
2018-06-08T20:23:56.462Z,100008.14
2018-06-08T20:26:24.328Z,100008.33
2018-06-08T20:28:52.222Z,100007.75
2018-06-08T20:31:20.180Z,100010.95
2018-06-08T20:33:48.058Z,100011.78
2018-06-08T20:36:15.961Z,100004.02
2018-06-08T20:38:43.876Z,100004.52
2018-06-08T20:41:13.078Z,100008.11
2018-06-08T20:43:44.270Z,99999.80
2018-06-08T20:46:12.216Z,100004.42
2018-06-08T20:48:40.064Z,100001.04
2018-06-08T20:51:07.950Z,100001.09
2018-06-08T20:53:37.049Z,100000.47
2018-06-08T20:56:07.475Z,100006.52
2018-06-08T20:58:38.745Z,100005.67
2018-06-08T21:01:19.186Z,100001.34
2018-06-08T21:03:58.076Z,99996.98
2018-06-08T21:06:26.202Z,99998.80
2018-06-08T21:08:55.077Z,99995.25
2018-06-08T21:11:22.904Z,99998.28
2018-06-08T21:13:51.461Z,99997.31
2018-06-08T21:16:22.799Z,99991.56
2018-06-08T21:18:51.400Z,99993.53
2018-06-08T21:21:19.306Z,99996.31
2018-06-08T21:23:47.177Z,99996.45
2018-06-08T21:26:15.021Z,99993.56
2018-06-08T21:28:42.896Z,99993.70
2018-06-08T21:31:10.878Z,99999.04
2018-06-08T21:33:38.724Z,99996.81
2018-06-08T21:36:06.652Z,99993.47
2018-06-08T21:38:34.521Z,99995.14
2018-06-08T21:41:02.707Z,99991.02
2018-06-08T21:43:30.972Z,99992.52
2018-06-08T21:45:58.953Z,99998.40
2018-06-08T21:48:26.964Z,100004.02
2018-06-08T21:50:55.136Z,100000.80
2018-06-08T21:53:24.649Z,100001.19
2018-06-08T21:55:53.706Z,100007.54
2018-06-08T21:58:23.280Z,100013.33
2018-06-08T22:00:51.216Z,100015.94
2018-06-08T22:03:19.448Z,100014.77
2018-06-08T22:05:47.606Z,100008.91
2018-06-08T22:08:15.597Z,100010.13
2018-06-08T22:10:43.493Z,100008.14
2018-06-08T22:13:13.374Z,100015.69
2018-06-08T22:15:42.822Z,100007.75
2018-06-08T22:18:10.685Z,100010.56
2018-06-08T22:20:39.063Z,100013.67
2018-06-08T22:23:07.173Z,100005.59
2018-06-08T22:25:35.101Z,100009.83
2018-06-08T22:28:03.297Z,100006.64
2018-06-08T22:30:31.262Z,100000.22
2018-06-08T22:32:59.165Z,99995.69
2018-06-08T22:35:27.061Z,99996.39
2018-06-08T22:37:54.876Z,99998.60
2018-06-08T22:40:22.796Z,99991.08
2018-06-08T22:42:50.780Z,99994.64
2018-06-08T22:45:18.703Z,99997.42
2018-06-08T22:47:46.533Z,99994.39
2018-06-08T22:50:14.398Z,99987.89
2018-06-08T22:52:42.288Z,99990.02
2018-06-08T22:55:10.176Z,99987.49
2018-06-08T22:57:37.952Z,99986.63
2018-06-08T23:00:05.914Z,99978.86
2018-06-08T23:02:33.713Z,99983.85
2018-06-08T23:05:01.626Z,99978.50
2018-06-08T23:07:29.505Z,99982.27
2018-06-08T23:09:57.396Z,99983.41
2018-06-08T23:12:25.297Z,99977.36
2018-06-08T23:14:53.138Z,99973.36
2018-06-08T23:17:21.216Z,99977.90
2018-06-08T23:19:49.160Z,99978.50
2018-06-08T23:22:17.101Z,99975.94
2018-06-08T23:24:44.960Z,99976.38
2018-06-08T23:27:12.920Z,99980.98
2018-06-08T23:29:40.789Z,99990.72
2018-06-08T23:32:08.680Z,99988.02
2018-06-08T23:34:36.581Z,99986.73
2018-06-08T23:37:04.622Z,99982.53
2018-06-08T23:39:32.470Z,99978.66
2018-06-08T23:42:00.353Z,99978.80
2018-06-08T23:44:28.270Z,99979.80
2018-06-08T23:46:56.112Z,99986.00
2018-06-08T23:49:23.956Z,99980.69
2018-06-08T23:51:51.757Z,99979.24
2018-06-08T23:54:19.656Z,99987.50
2018-06-08T23:56:49.059Z,99985.22
2018-06-08T23:59:16.970Z,99988.00
